Time;durP1;ratioP1;P1;durP2;ratioP2;P2;SDS_P1;SDS_P2;PMS_P1;PMS_P2;Temp;Humidity;BMP_temperature;BMP_pressure;BME280_temperature;BME280_humidity;BME280_pressure;Samples;Min_cycle;Max_cycle;Signal;HPM_P1;HPM_P2
2022/02/10 00:24:23;;;;;;;56.13;21.27;;;7.90;99.90;;;;;;5059832;28;20055;-72
2022/02/10 00:34:53;;;;;;;52.90;19.75;;;7.80;99.90;;;;;;5090126;28;20040;-71
2022/02/10 00:37:24;;;;;;;54.40;19.30;;;7.80;99.90;;;;;;5088743;28;20051;-71
2022/02/10 00:42:28;;;;;;;42.53;18.48;;;7.80;99.90;;;;;;5091693;28;20135;-71
2022/02/10 00:44:54;;;;;;;46.60;19.02;;;7.80;99.90;;;;;;5095709;28;20043;-71
2022/02/10 00:47:19;;;;;;;40.10;17.73;;;7.70;99.90;;;;;;5088163;28;20054;-71
2022/02/10 00:49:47;;;;;;;38.22;17.02;;;7.80;99.90;;;;;;5082963;28;20033;-71
2022/02/10 00:52:13;;;;;;;37.45;16.98;;;7.70;99.90;;;;;;5078725;28;20486;-71
2022/02/10 00:54:39;;;;;;;44.90;16.52;;;7.80;99.90;;;;;;5091379;28;20040;-71
2022/02/10 00:57:08;;;;;;;40.85;17.00;;;7.70;99.90;;;;;;5090655;28;20131;-71
2022/02/10 00:59:56;;;;;;;38.72;15.95;;;7.70;99.90;;;;;;5082842;28;20040;-71
2022/02/10 01:10:36;;;;;;;35.57;15.23;;;7.70;99.90;;;;;;5088909;28;20036;-71
2022/02/10 01:29:39;;;;;;;29.48;12.98;;;7.70;99.90;;;;;;5083745;28;20048;-72
2022/02/10 01:32:05;;;;;;;33.88;14.00;;;7.70;99.90;;;;;;5084242;28;20044;-72
2022/02/10 01:34:34;;;;;;;30.42;13.18;;;7.70;99.90;;;;;;5089389;28;20040;-72
2022/02/10 01:37:00;;;;;;;28.10;12.38;;;7.70;99.90;;;;;;5090505;28;20055;-72
2022/02/10 01:39:31;;;;;;;28.13;12.68;;;7.70;99.90;;;;;;5090474;28;20032;-72
2022/02/10 02:03:43;;;;;;;26.33;10.93;;;7.70;99.90;;;;;;5082837;28;20048;-72
2022/02/10 02:06:13;;;;;;;22.73;11.02;;;7.70;99.90;;;;;;5089179;28;20051;-72
2022/02/10 02:08:40;;;;;;;21.63;10.70;;;7.70;99.90;;;;;;5090126;28;20059;-72
2022/02/10 02:11:06;;;;;;;21.88;9.85;;;7.70;99.90;;;;;;5077055;28;20115;-72
2022/02/10 02:13:33;;;;;;;17.50;9.70;;;7.70;99.90;;;;;;5090106;28;20069;-72
2022/02/10 02:15:59;;;;;;;20.80;10.55;;;7.70;99.90;;;;;;5089919;28;20051;-72
2022/02/10 02:18:26;;;;;;;17.67;9.98;;;7.70;99.90;;;;;;5091350;28;20039;-72
2022/02/10 02:20:54;;;;;;;25.58;10.55;;;7.70;99.90;;;;;;5087366;28;20052;-72
2022/02/10 02:23:22;;;;;;;20.98;10.02;;;7.70;99.90;;;;;;5093753;28;20044;-72
2022/02/10 02:25:53;;;;;;;15.50;8.60;;;7.60;99.90;;;;;;5094163;28;20093;-72
2022/02/10 02:28:19;;;;;;;10.35;6.45;;;7.60;99.90;;;;;;5093801;28;20049;-72
2022/02/10 02:30:59;;;;;;;10.35;6.40;;;7.50;99.90;;;;;;5087814;28;20044;-72
2022/02/10 03:08:26;;;;;;;8.07;4.72;;;7.30;99.90;;;;;;5090491;28;20048;-72
2022/02/10 03:11:09;;;;;;;6.57;4.40;;;7.30;99.90;;;;;;5077050;28;20048;-72
2022/02/10 03:13:39;;;;;;;6.57;3.88;;;7.30;99.90;;;;;;5079039;28;20049;-72
2022/02/10 03:21:30;;;;;;;4.93;3.45;;;7.30;99.90;;;;;;5093027;28;20040;-72
2022/02/10 04:07:38;;;;;;;8.50;5.35;;;7.10;99.90;;;;;;5087444;28;20454;-72
2022/02/10 04:13:24;;;;;;;7.57;5.00;;;7.10;99.90;;;;;;5051105;28;20478;-72
2022/02/10 04:16:07;;;;;;;8.40;5.57;;;7.10;99.90;;;;;;5084640;28;20040;-72
2022/02/10 04:19:31;;;;;;;8.60;5.28;;;7.10;99.90;;;;;;5091373;28;20036;-72
2022/02/10 04:29:28;;;;;;;8.27;5.35;;;7.10;99.90;;;;;;5090577;28;20414;-72
2022/02/10 04:37:53;;;;;;;7.75;5.40;;;7.00;99.90;;;;;;5091073;28;20052;-72
2022/02/10 05:07:47;;;;;;;9.85;6.90;;;7.00;99.90;;;;;;5082073;28;20442;-72
2022/02/10 05:20:44;;;;;;;9.05;6.28;;;7.00;99.90;;;;;;5088968;28;20055;-72
2022/02/10 05:33:58;;;;;;;12.85;7.03;;;6.90;99.90;;;;;;5081325;28;20070;-72
2022/02/10 05:36:27;;;;;;;9.02;6.60;;;6.90;99.90;;;;;;5089350;28;20100;-72
2022/02/10 05:39:05;;;;;;;10.77;6.93;;;6.90;99.90;;;;;;5072996;28;20120;-72
2022/02/10 05:44:30;;;;;;;9.18;6.88;;;6.90;99.90;;;;;;5089111;28;20159;-72
2022/02/10 06:03:04;;;;;;;10.27;6.80;;;6.80;99.90;;;;;;5094302;28;20044;-71
2022/02/10 07:05:27;;;;;;;16.75;10.35;;;6.70;99.90;;;;;;5069561;28;20051;-72
2022/02/10 07:08:14;;;;;;;14.52;10.10;;;6.60;99.90;;;;;;5092551;28;20055;-72
2022/02/10 07:13:35;;;;;;;11.93;9.50;;;6.70;99.90;;;;;;5091990;28;20048;-72
2022/02/10 07:54:16;;;;;;;15.68;10.65;;;6.60;99.90;;;;;;5070065;28;20040;-72
2022/02/10 07:57:02;;;;;;;15.65;9.60;;;6.60;99.90;;;;;;5069349;28;20137;-72
2022/02/10 08:49:41;;;;;;;17.95;11.30;;;6.80;99.90;;;;;;5071902;28;20076;-72
2022/02/10 08:56:14;;;;;;;12.40;8.32;;;7.20;99.90;;;;;;5072218;28;20032;-72
2022/02/10 08:59:01;;;;;;;13.63;8.60;;;7.30;99.90;;;;;;5067128;28;20032;-72
2022/02/10 09:04:23;;;;;;;12.85;7.93;;;7.40;99.90;;;;;;5070537;28;20045;-72
2022/02/10 09:07:10;;;;;;;12.98;7.10;;;7.40;99.90;;;;;;5070709;28;20366;-72
2022/02/10 09:12:42;;;;;;;11.10;6.53;;;7.50;99.90;;;;;;5070492;28;20463;-72
2022/02/10 09:26:51;;;;;;;8.45;5.43;;;7.60;99.90;;;;;;5044040;28;20049;-72
2022/02/10 10:00:58;;;;;;;9.80;4.15;;;8.00;99.90;;;;;;5068544;28;20135;-72
2022/02/10 10:03:33;;;;;;;8.88;4.47;;;8.00;99.90;;;;;;5067377;28;20048;-72
2022/02/10 10:06:17;;;;;;;8.43;3.60;;;8.00;99.90;;;;;;5052639;28;20116;-72
2022/02/10 10:09:03;;;;;;;8.93;3.72;;;8.00;99.90;;;;;;5065345;28;20040;-72
2022/02/10 10:14:31;;;;;;;9.40;3.97;;;8.00;99.90;;;;;;5070190;28;20127;-72
2022/02/10 10:50:37;;;;;;;6.63;2.67;;;8.70;99.90;;;;;;5072268;28;20053;-71
2022/02/10 11:07:33;;;;;;;8.85;2.17;;;8.60;99.90;;;;;;5072346;28;20131;-72
2022/02/10 11:41:05;;;;;;;7.85;1.50;;;9.20;99.90;;;;;;5067787;28;20052;-72
2022/02/10 11:43:41;;;;;;;7.40;1.73;;;9.20;99.90;;;;;;5070657;28;20074;-72
2022/02/10 12:30:10;;;;;;;8.82;2.28;;;9.50;99.90;;;;;;5070100;28;20052;-72
2022/02/10 14:09:36;;;;;;;9.95;2.22;;;8.60;99.90;;;;;;5059335;28;20080;-72
2022/02/10 14:14:51;;;;;;;7.07;1.60;;;8.60;99.90;;;;;;5061802;28;20083;-71
2022/02/10 14:17:28;;;;;;;8.10;1.50;;;8.50;99.90;;;;;;5067017;28;20037;-71
2022/02/10 14:20:13;;;;;;;10.98;1.95;;;8.50;99.90;;;;;;5072207;28;20059;-71
2022/02/10 14:22:51;;;;;;;8.20;1.70;;;8.50;99.90;;;;;;5085583;28;20525;-71
2022/02/10 14:28:01;;;;;;;9.77;2.25;;;8.40;99.90;;;;;;5068669;28;20570;-72
2022/02/10 14:30:28;;;;;;;6.63;1.38;;;8.30;99.90;;;;;;5068393;28;20033;-72
2022/02/10 14:32:56;;;;;;;10.07;1.70;;;8.30;99.90;;;;;;5072452;28;20497;-72
2022/02/10 14:35:29;;;;;;;9.35;1.75;;;8.20;99.90;;;;;;5054895;28;20120;-72
2022/02/10 14:38:14;;;;;;;9.07;2.33;;;8.20;99.90;;;;;;5052394;28;20036;-72
2022/02/10 15:20:46;;;;;;;4.95;1.60;;;7.90;99.90;;;;;;5067383;28;20131;-72
2022/02/10 15:51:24;;;;;;;9.40;1.63;;;;;;;;;;5059967;28;20079;-71
2022/02/10 16:14:25;;;;;;;8.63;1.88;;;6.80;99.90;;;;;;5068587;28;20049;-72
2022/02/10 16:18:12;;;;;;;9.98;2.00;;;6.70;99.90;;;;;;5071052;28;20524;-72
2022/02/10 16:20:38;;;;;;;11.20;2.00;;;6.60;99.90;;;;;;5066544;28;20041;-71
2022/02/10 16:23:15;;;;;;;8.27;1.70;;;6.70;99.90;;;;;;5072004;28;20059;-71
2022/02/10 16:25:47;;;;;;;6.30;1.30;;;6.70;99.90;;;;;;5070150;28;20422;-71
2022/02/10 16:30:47;;;;;;;8.52;1.88;;;6.60;99.90;;;;;;5070564;28;20127;-71
2022/02/10 16:33:14;;;;;;;6.28;1.98;;;6.50;99.90;;;;;;5067188;28;20185;-71
2022/02/10 16:35:42;;;;;;;11.40;2.67;;;6.50;99.90;;;;;;5053896;28;20120;-71
2022/02/10 16:38:08;;;;;;;9.18;2.67;;;6.50;99.90;;;;;;5067539;28;20084;-72
2022/02/10 16:40:34;;;;;;;7.70;1.83;;;6.30;99.90;;;;;;5061524;28;20131;-72
2022/02/10 16:43:00;;;;;;;7.80;1.65;;;6.30;99.90;;;;;;5070559;28;20424;-72
2022/02/10 16:45:26;;;;;;;10.02;1.90;;;6.20;99.90;;;;;;5059165;28;20068;-71
2022/02/10 16:47:51;;;;;;;10.35;1.67;;;6.30;99.90;;;;;;5065977;28;20060;-71
2022/02/10 16:50:18;;;;;;;10.93;2.25;;;6.30;99.90;;;;;;5052546;28;20086;-71
2022/02/10 16:52:49;;;;;;;7.88;2.08;;;6.30;99.90;;;;;;5069893;28;20059;-71
2022/02/10 16:57:50;;;;;;;11.20;2.65;;;6.10;99.90;;;;;;5071232;28;20048;-71
2022/02/10 17:19:29;;;;;;;11.45;2.28;;;5.90;99.90;;;;;;5060010;28;20123;-71
2022/02/10 17:27:25;;;;;;;9.73;1.92;;;5.70;99.90;;;;;;5064539;28;20116;-71
2022/02/10 17:32:52;;;;;;;9.15;2.38;;;5.60;99.90;;;;;;5069350;28;20048;-71
2022/02/10 17:35:22;;;;;;;21.88;7.15;;;5.50;99.90;;;;;;5063756;28;20417;-71
2022/02/10 17:51:44;;;;;;;10.73;2.30;;;5.30;99.90;;;;;;5067904;28;20052;-71
2022/02/10 17:54:11;;;;;;;9.80;3.65;;;5.30;99.90;;;;;;5069057;28;20407;-71
2022/02/10 17:56:38;;;;;;;9.05;3.22;;;5.30;99.90;;;;;;5063346;28;20429;-71
2022/02/10 17:59:04;;;;;;;8.68;2.90;;;5.20;99.90;;;;;;5066353;28;20040;-71
2022/02/10 18:01:31;;;;;;;10.98;2.15;;;5.20;99.90;;;;;;5050399;28;20126;-72
2022/02/10 18:03:56;;;;;;;8.93;2.20;;;5.20;99.90;;;;;;5061005;28;20116;-72
2022/02/10 18:06:24;;;;;;;8.13;2.42;;;5.30;99.90;;;;;;5065390;28;20569;-72
2022/02/10 18:12:02;;;;;;;9.05;2.15;;;5.20;99.90;;;;;;5066827;28;20131;-72
2022/02/10 18:14:44;;;;;;;12.98;1.98;;;5.30;99.90;;;;;;5062754;28;20655;-72
2022/02/10 18:17:18;;;;;;;9.40;1.90;;;5.30;99.90;;;;;;5061591;28;20619;-72
2022/02/10 18:20:07;;;;;;;17.55;3.42;;;5.30;99.90;;;;;;5066134;28;20076;-71
2022/02/10 18:33:56;;;;;;;11.30;2.83;;;5.30;99.90;;;;;;5065947;28;20049;-71
2022/02/10 19:09:27;;;;;;;13.70;2.53;;;5.10;99.90;;;;;;5068001;28;20143;-72
2022/02/10 19:12:00;;;;;;;13.18;2.92;;;5.10;99.90;;;;;;5070407;28;20041;-72
2022/02/10 19:14:27;;;;;;;11.70;2.63;;;5.10;99.90;;;;;;5068666;28;20048;-72
2022/02/10 19:16:54;;;;;;;8.93;2.38;;;5.10;99.90;;;;;;5069560;28;20764;-72
2022/02/10 19:19:20;;;;;;;8.95;3.00;;;5.00;99.90;;;;;;5071600;28;20068;-72
2022/02/10 19:21:46;;;;;;;15.68;2.55;;;5.00;99.90;;;;;;5067432;28;20060;-72
2022/02/10 19:24:11;;;;;;;10.57;2.42;;;4.90;99.90;;;;;;5069270;28;20521;-72
2022/02/10 19:26:38;;;;;;;9.57;2.55;;;4.90;99.90;;;;;;5066927;28;20064;-72
2022/02/10 19:29:04;;;;;;;11.20;2.65;;;4.90;99.90;;;;;;5063973;28;20037;-72
2022/02/10 19:31:34;;;;;;;7.95;2.28;;;4.90;99.90;;;;;;5071324;28;20067;-71
2022/02/10 19:33:59;;;;;;;9.52;2.40;;;4.90;99.90;;;;;;5069050;28;20041;-72
2022/02/10 19:36:27;;;;;;;11.95;2.67;;;4.90;99.90;;;;;;5071198;28;20090;-72
2022/02/10 19:38:53;;;;;;;16.35;2.67;;;4.80;99.90;;;;;;5066572;28;20487;-72
2022/02/10 19:41:18;;;;;;;9.27;2.35;;;4.80;99.90;;;;;;5069856;28;20135;-72
2022/02/10 19:43:44;;;;;;;12.25;2.88;;;4.80;99.90;;;;;;5067240;28;20367;-72
2022/02/10 19:46:11;;;;;;;8.57;2.50;;;4.80;99.90;;;;;;5052127;28;20070;-72
2022/02/10 19:48:38;;;;;;;12.38;3.42;;;4.70;99.90;;;;;;5068184;28;20056;-72
2022/02/10 19:51:05;;;;;;;13.70;3.40;;;4.70;99.90;;;;;;5053360;28;20120;-72
2022/02/10 19:53:30;;;;;;;10.75;2.85;;;4.70;99.90;;;;;;5069566;28;20072;-72
2022/02/10 19:55:56;;;;;;;10.07;3.50;;;4.80;99.90;;;;;;5068173;28;20040;-72
2022/02/10 19:58:24;;;;;;;14.57;3.35;;;4.70;99.90;;;;;;5068691;28;20039;-72
2022/02/10 20:00:55;;;;;;;13.27;3.25;;;4.70;99.90;;;;;;5065290;28;20048;-72
2022/02/10 20:03:23;;;;;;;12.35;3.38;;;4.70;99.90;;;;;;5053263;28;20048;-72
2022/02/10 20:05:51;;;;;;;8.40;3.50;;;4.60;99.90;;;;;;5055136;22;20049;-72
2022/02/10 20:08:19;;;;;;;10.77;3.13;;;4.60;99.90;;;;;;5041983;28;20443;-72
2022/02/10 20:10:45;;;;;;;14.32;3.05;;;4.60;99.90;;;;;;5041602;28;20143;-72
2022/02/10 20:13:16;;;;;;;11.13;2.45;;;4.60;99.90;;;;;;5036524;28;20037;-72
2022/02/10 20:15:46;;;;;;;10.85;2.58;;;4.50;99.90;;;;;;5030433;28;20450;-72
2022/02/10 20:18:14;;;;;;;15.00;3.42;;;4.60;99.90;;;;;;5049855;28;20044;-72
2022/02/10 20:20:41;;;;;;;16.67;2.88;;;4.60;99.90;;;;;;5051740;28;20112;-72
2022/02/10 20:23:08;;;;;;;12.25;2.88;;;4.60;99.90;;;;;;5048434;28;20085;-72
2022/02/10 20:25:34;;;;;;;15.48;6.47;;;4.60;99.90;;;;;;5047628;28;20037;-72
2022/02/10 20:28:00;;;;;;;15.20;5.22;;;4.50;99.90;;;;;;5021514;28;20057;-72
2022/02/10 20:30:25;;;;;;;13.27;4.07;;;4.50;99.90;;;;;;5039739;28;20406;-71
2022/02/10 20:32:51;;;;;;;12.57;5.32;;;4.50;99.90;;;;;;5022934;28;20082;-72
2022/02/10 20:35:18;;;;;;;17.92;7.38;;;4.50;99.90;;;;;;5039265;28;20045;-72
2022/02/10 20:37:44;;;;;;;21.08;6.60;;;4.50;99.90;;;;;;5045777;28;20570;-71
2022/02/10 20:40:10;;;;;;;18.17;5.38;;;4.40;99.90;;;;;;5032608;28;20143;-72
2022/02/10 20:42:36;;;;;;;13.15;4.32;;;4.40;99.90;;;;;;5037627;28;20137;-72
2022/02/10 20:45:03;;;;;;;11.65;3.95;;;4.40;99.90;;;;;;5040976;28;20784;-72
2022/02/10 20:47:29;;;;;;;10.88;3.67;;;4.40;99.90;;;;;;5043026;28;20072;-72
2022/02/10 20:49:54;;;;;;;15.65;5.32;;;4.40;99.90;;;;;;5038866;28;20076;-72
2022/02/10 20:52:20;;;;;;;12.48;3.42;;;4.40;99.90;;;;;;5046458;28;20467;-72
2022/02/10 20:54:46;;;;;;;15.50;6.10;;;4.30;99.90;;;;;;5045109;28;20468;-71
2022/02/10 20:57:12;;;;;;;13.93;4.43;;;4.30;99.90;;;;;;5040264;28;20041;-72
2022/02/10 20:59:41;;;;;;;17.33;4.93;;;4.30;99.90;;;;;;5038219;28;20044;-72
2022/02/10 21:02:12;;;;;;;15.30;4.28;;;4.30;99.90;;;;;;5037363;28;20107;-72
2022/02/10 21:04:44;;;;;;;13.68;3.28;;;4.30;99.90;;;;;;5044476;28;20490;-72
2022/02/10 21:10:12;;;;;;;13.75;3.92;;;4.30;99.90;;;;;;5045350;28;20135;-72
2022/02/10 21:12:31;;;;;;;13.35;4.20;;;4.20;99.90;;;;;;5036809;28;20067;-72
2022/02/10 21:14:58;;;;;;;9.90;3.55;;;4.20;99.90;;;;;;5040174;28;20041;-72
2022/02/10 21:17:26;;;;;;;12.13;2.90;;;4.30;99.90;;;;;;5041584;28;20131;-72
2022/02/10 21:19:58;;;;;;;10.65;3.25;;;4.20;99.90;;;;;;5042047;28;20052;-72
2022/02/10 21:22:24;;;;;;;11.85;2.70;;;4.20;99.90;;;;;;5019484;28;20048;-72
2022/02/10 21:24:59;;;;;;;13.13;3.15;;;4.20;99.90;;;;;;5024585;28;20068;-72
2022/02/10 21:28:02;;;;;;;9.48;3.25;;;4.10;99.90;;;;;;5044478;28;20116;-72
2022/02/10 21:30:18;;;;;;;18.10;4.18;;;4.10;99.90;;;;;;5036194;28;20136;-72
2022/02/10 21:32:50;;;;;;;13.38;3.40;;;4.00;99.90;;;;;;5040409;28;20100;-72
2022/02/10 21:35:28;;;;;;;12.55;4.20;;;4.00;99.90;;;;;;5047337;28;20032;-72
2022/02/10 21:38:08;;;;;;;11.60;4.25;;;3.90;99.90;;;;;;5068884;28;20119;-72
2022/02/10 21:47:19;;;;;;;13.30;3.65;;;3.80;99.90;;;;;;5042616;28;20064;-72
2022/02/10 21:56:47;;;;;;;11.40;2.85;;;3.60;99.90;;;;;;5037327;28;20041;-72
2022/02/10 22:03:00;;;;;;;10.98;2.92;;;3.40;99.90;;;;;;5039684;28;20073;-72
2022/02/10 22:07:58;;;;;;;13.13;3.25;;;3.30;99.90;;;;;;5041689;28;20528;-72
2022/02/10 22:18:32;;;;;;;12.48;2.95;;;3.10;99.90;;;;;;5044856;28;20087;-72
2022/02/10 22:20:59;;;;;;;9.15;2.92;;;3.10;99.90;;;;;;5042598;28;20091;-72
2022/02/10 22:23:27;;;;;;;17.35;3.92;;;3.10;99.90;;;;;;5046147;28;20040;-72
2022/02/10 22:25:59;;;;;;;10.75;3.35;;;3.10;99.90;;;;;;5040636;28;20462;-72
2022/02/10 22:28:31;;;;;;;9.60;2.83;;;3.10;99.90;;;;;;5027513;28;20048;-72
2022/02/10 22:31:14;;;;;;;13.13;2.75;;;3.10;99.90;;;;;;5040952;28;20183;-72
2022/02/10 22:33:49;;;;;;;18.35;3.67;;;3.00;99.90;;;;;;5047036;28;20090;-72
2022/02/10 22:36:17;;;;;;;11.52;3.67;;;3.00;99.90;;;;;;5036164;28;20040;-73
2022/02/10 22:38:43;;;;;;;12.85;3.63;;;3.00;99.90;;;;;;5052301;28;20060;-72
2022/02/10 22:41:10;;;;;;;13.55;4.45;;;2.90;99.90;;;;;;5051100;28;20033;-72
2022/02/10 22:43:37;;;;;;;17.88;3.85;;;2.90;99.90;;;;;;5033161;28;20033;-73
2022/02/10 22:46:04;;;;;;;12.38;3.70;;;2.90;99.90;;;;;;5028698;28;20560;-72
2022/02/10 22:48:29;;;;;;;12.57;3.50;;;2.80;99.90;;;;;;5026552;28;20041;-72
2022/02/10 22:50:55;;;;;;;16.38;3.70;;;2.80;99.90;;;;;;5049710;28;20615;-72
2022/02/10 22:53:20;;;;;;;11.82;3.65;;;2.70;99.90;;;;;;5050867;28;20036;-72
2022/02/10 22:55:46;;;;;;;10.13;3.20;;;2.70;99.90;;;;;;5034209;28;20039;-72
2022/02/10 22:58:12;;;;;;;11.52;3.42;;;2.60;99.90;;;;;;5046993;28;20061;-72
2022/02/10 23:00:46;;;;;;;9.57;3.13;;;2.60;99.90;;;;;;5047930;28;20048;-72
2022/02/10 23:03:19;;;;;;;10.75;3.35;;;2.60;99.90;;;;;;5048103;28;20041;-72
2022/02/10 23:05:45;;;;;;;12.00;3.05;;;2.60;99.90;;;;;;5047210;28;20131;-72
2022/02/10 23:08:11;;;;;;;7.88;2.38;;;2.50;99.90;;;;;;5035561;28;20099;-72
2022/02/10 23:10:47;;;;;;;14.35;2.80;;;2.50;99.90;;;;;;5045086;28;20111;-72
2022/02/10 23:13:27;;;;;;;155.52;103.03;;;2.50;99.90;;;;;;5043899;28;20052;-72
2022/02/10 23:15:53;;;;;;;28.67;13.43;;;2.50;99.90;;;;;;5047794;28;20067;-72
2022/02/10 23:18:22;;;;;;;40.95;17.10;;;2.60;99.90;;;;;;5042100;28;20529;-72
2022/02/10 23:20:49;;;;;;;30.25;15.50;;;2.60;99.90;;;;;;5049378;28;20056;-72
2022/02/10 23:23:16;;;;;;;14.82;4.75;;;2.70;99.90;;;;;;5045343;28;20521;-72
2022/02/10 23:25:44;;;;;;;35.42;15.38;;;2.80;99.90;;;;;;5031120;28;20479;-72
2022/02/10 23:28:16;;;;;;;8.32;2.88;;;2.90;99.90;;;;;;5042171;28;20482;-72
2022/02/10 23:30:46;;;;;;;23.65;6.72;;;2.90;99.90;;;;;;5042985;28;20034;-72
2022/02/10 23:33:29;;;;;;;31.50;11.38;;;2.90;99.90;;;;;;5049331;28;20634;-72
2022/02/10 23:38:26;;;;;;;25.50;8.18;;;3.00;99.90;;;;;;5048649;28;20056;-72
2022/02/10 23:43:20;;;;;;;34.42;9.73;;;2.90;99.90;;;;;;5035132;28;20481;-72
2022/02/10 23:45:46;;;;;;;66.05;26.63;;;2.80;99.90;;;;;;5047083;28;20130;-72
2022/02/10 23:48:12;;;;;;;38.00;17.77;;;2.80;99.90;;;;;;5046158;28;20052;-72
2022/02/10 23:50:37;;;;;;;15.20;4.90;;;2.80;99.90;;;;;;5040348;28;20111;-72
2022/02/10 23:53:04;;;;;;;25.20;12.48;;;2.70;99.90;;;;;;5039428;28;20037;-72
2022/02/10 23:55:34;;;;;;;27.17;14.35;;;2.70;99.90;;;;;;5042063;28;20033;-72
